createdAt,value
2018-10-17T00:01:15.158Z,42.95
2018-10-17T00:03:50.863Z,44.10
2018-10-17T00:06:26.485Z,45.50
2018-10-17T00:09:02.164Z,45.50
2018-10-17T00:11:37.571Z,41.05
2018-10-17T00:14:12.965Z,39.75
2018-10-17T00:16:48.360Z,41.13
2018-10-17T00:19:23.933Z,40.45
2018-10-17T00:21:59.850Z,39.67
2018-10-17T00:24:35.389Z,41.50
2018-10-17T00:27:10.825Z,41.18
2018-10-17T00:29:46.583Z,37.98
2018-10-17T00:32:28.600Z,44.03
2018-10-17T00:35:04.014Z,43.50
2018-10-17T00:37:39.310Z,39.92
2018-10-17T00:40:14.738Z,41.45
2018-10-17T00:42:50.165Z,39.48
2018-10-17T00:45:25.556Z,37.60
2018-10-17T00:48:00.974Z,41.50
2018-10-17T00:50:36.341Z,37.98
2018-10-17T00:53:11.739Z,40.33
2018-10-17T00:55:47.198Z,40.65
2018-10-17T00:58:22.708Z,40.30
2018-10-17T01:00:58.326Z,40.20
2018-10-17T01:03:33.923Z,38.33
2018-10-17T01:06:09.392Z,35.28
2018-10-17T01:08:44.771Z,34.30
2018-10-17T01:11:20.284Z,36.10
2018-10-17T01:13:55.770Z,35.73
2018-10-17T01:16:31.144Z,34.83
2018-10-17T01:19:07.067Z,35.80
2018-10-17T01:21:42.321Z,36.88
2018-10-17T01:24:17.665Z,38.42
2018-10-17T01:26:53.178Z,38.88
2018-10-17T01:29:28.581Z,40.80
2018-10-17T01:32:04.001Z,40.80
2018-10-17T01:34:39.473Z,41.20
2018-10-17T01:37:14.957Z,37.93
2018-10-17T01:39:50.551Z,38.30
2018-10-17T01:42:26.183Z,37.10
2018-10-17T01:45:01.851Z,42.50
2018-10-17T01:47:37.315Z,38.85
2018-10-17T01:50:13.046Z,37.08
2018-10-17T01:52:48.704Z,41.58
2018-10-17T01:55:24.031Z,38.15
2018-10-17T01:57:59.393Z,35.08
2018-10-17T02:00:34.680Z,34.30
2018-10-17T02:03:10.233Z,36.03
2018-10-17T02:05:45.723Z,31.65
2018-10-17T02:08:21.225Z,33.13
2018-10-17T02:10:56.713Z,35.45
2018-10-17T02:13:32.231Z,34.27
2018-10-17T02:16:07.881Z,36.63
2018-10-17T02:18:43.521Z,36.28
2018-10-17T02:21:19.000Z,37.48
2018-10-17T02:23:54.290Z,35.05
2018-10-17T02:26:29.684Z,36.48
2018-10-17T02:29:05.661Z,35.15
2018-10-17T02:31:40.856Z,39.45
2018-10-17T02:34:16.191Z,38.53
2018-10-17T02:36:51.458Z,41.30
2018-10-17T02:39:26.802Z,42.85
2018-10-17T02:42:02.231Z,44.67
2018-10-17T02:44:37.503Z,45.65
2018-10-17T02:47:12.835Z,40.12
2018-10-17T02:49:48.126Z,44.88
2018-10-17T02:52:23.824Z,45.20
2018-10-17T02:54:59.386Z,43.05
2018-10-17T02:57:34.734Z,42.67
2018-10-17T03:00:10.624Z,40.52
2018-10-17T03:02:46.025Z,41.42
2018-10-17T03:05:21.434Z,38.60
2018-10-17T03:07:56.994Z,37.98
2018-10-17T03:10:32.423Z,36.77
2018-10-17T03:13:07.824Z,39.75
2018-10-17T03:15:43.161Z,39.63
2018-10-17T03:18:18.621Z,39.33
2018-10-17T03:20:54.103Z,40.33
2018-10-17T03:23:29.537Z,38.60
2018-10-17T03:26:04.986Z,41.53
2018-10-17T03:28:40.251Z,41.95
2018-10-17T03:31:15.739Z,47.48
2018-10-17T03:33:51.076Z,47.15
2018-10-17T03:36:26.507Z,43.20
2018-10-17T03:39:01.916Z,45.73
2018-10-17T03:41:37.324Z,45.15
2018-10-17T03:44:12.904Z,45.48
2018-10-17T03:46:48.423Z,48.40
2018-10-17T03:49:24.061Z,46.10
2018-10-17T03:51:59.475Z,48.38
2018-10-17T03:54:34.914Z,51.08
2018-10-17T03:57:10.595Z,50.43
2018-10-17T03:59:46.127Z,50.58
2018-10-17T04:02:21.603Z,48.58
2018-10-17T04:04:56.984Z,50.15
2018-10-17T04:07:32.162Z,49.33
2018-10-17T04:10:07.612Z,50.03
2018-10-17T04:12:42.945Z,49.45
2018-10-17T04:15:18.201Z,51.50
2018-10-17T04:17:53.721Z,49.25
2018-10-17T04:20:29.311Z,47.80
2018-10-17T04:23:04.951Z,49.83
2018-10-17T04:25:40.292Z,53.40
2018-10-17T04:28:15.737Z,54.27
2018-10-17T04:30:51.044Z,48.17
2018-10-17T04:33:26.459Z,49.03
2018-10-17T04:36:01.883Z,49.73
2018-10-17T04:38:37.205Z,51.10
2018-10-17T04:41:12.889Z,50.35
2018-10-17T04:43:48.201Z,50.70
2018-10-17T04:46:23.614Z,50.00
2018-10-17T04:48:58.987Z,50.43
2018-10-17T04:51:34.551Z,52.38
2018-10-17T04:54:09.963Z,53.25
2018-10-17T04:56:45.371Z,50.08
2018-10-17T04:59:20.731Z,50.88
2018-10-17T05:01:56.189Z,53.75
2018-10-17T05:04:31.644Z,51.00
2018-10-17T05:07:07.187Z,50.55
2018-10-17T05:09:42.524Z,48.65
2018-10-17T05:12:17.884Z,52.00
2018-10-17T05:14:53.220Z,50.03
2018-10-17T05:17:28.502Z,51.65
2018-10-17T05:20:03.947Z,52.85
2018-10-17T05:22:39.477Z,53.10
2018-10-17T05:25:14.902Z,55.67
2018-10-17T05:27:50.402Z,56.50
2018-10-17T05:30:25.731Z,49.63
2018-10-17T05:33:01.081Z,52.50
2018-10-17T05:35:36.871Z,48.58
2018-10-17T05:38:12.484Z,50.67
2018-10-17T05:40:48.022Z,53.10
2018-10-17T05:43:23.585Z,50.60
2018-10-17T05:45:58.981Z,56.37
2018-10-17T05:48:34.449Z,52.98
2018-10-17T05:51:09.943Z,56.80
2018-10-17T05:53:45.381Z,56.13
2018-10-17T05:56:20.795Z,59.85
2018-10-17T05:58:56.198Z,56.63
2018-10-17T06:01:31.505Z,59.53
2018-10-17T06:04:07.385Z,58.63
2018-10-17T06:06:42.867Z,61.40
2018-10-17T06:09:18.292Z,58.20
2018-10-17T06:11:53.782Z,59.20
2018-10-17T06:14:29.091Z,58.23
2018-10-17T06:17:04.529Z,58.42
2018-10-17T06:19:39.812Z,60.20
2018-10-17T06:22:15.262Z,59.98
2018-10-17T06:24:51.112Z,56.80
2018-10-17T06:27:26.672Z,52.55
2018-10-17T06:30:02.106Z,57.20
2018-10-17T06:32:37.722Z,52.83
2018-10-17T06:35:13.112Z,55.12
2018-10-17T06:37:48.484Z,54.23
2018-10-17T06:40:24.143Z,53.80
2018-10-17T06:42:59.469Z,57.25
2018-10-17T06:45:34.822Z,52.23
2018-10-17T06:48:10.357Z,52.27
2018-10-17T06:50:45.612Z,54.40
2018-10-17T06:53:20.806Z,51.35
2018-10-17T06:55:56.074Z,50.70
2018-10-17T06:58:31.654Z,50.63
2018-10-17T07:01:07.193Z,50.03
2018-10-17T07:03:42.799Z,51.80
2018-10-17T07:06:18.157Z,51.37
2018-10-17T07:08:53.302Z,49.13
2018-10-17T07:11:28.821Z,48.15
2018-10-17T07:14:05.543Z,50.05
2018-10-17T07:16:40.834Z,50.95
2018-10-17T07:19:16.246Z,44.45
2018-10-17T07:21:51.466Z,47.25
2018-10-17T07:24:26.737Z,43.40
2018-10-17T07:27:02.298Z,45.43
2018-10-17T07:29:37.944Z,43.95
2018-10-17T07:32:13.332Z,43.70
2018-10-17T07:34:48.660Z,43.63
2018-10-17T07:37:24.012Z,44.80
2018-10-17T07:39:59.344Z,41.45
2018-10-17T07:42:34.812Z,43.13
2018-10-17T07:45:10.066Z,39.95
2018-10-17T07:47:45.363Z,42.15
2018-10-17T07:50:20.597Z,44.88
2018-10-17T07:52:55.811Z,39.93
2018-10-17T07:55:31.187Z,41.77
2018-10-17T07:58:06.940Z,40.37
2018-10-17T08:00:42.189Z,40.83
2018-10-17T08:03:17.498Z,41.33
2018-10-17T08:05:52.923Z,37.50
2018-10-17T08:08:28.171Z,39.40
2018-10-17T08:11:03.406Z,41.47
2018-10-17T08:13:38.814Z,38.17
2018-10-17T08:17:17.419Z,38.70
2018-10-17T08:19:52.744Z,37.87
2018-10-17T08:22:27.904Z,39.90
2018-10-17T08:25:03.391Z,39.23
2018-10-17T08:27:38.629Z,41.93
2018-10-17T08:30:13.959Z,41.17
2018-10-17T08:32:49.154Z,39.87
2018-10-17T08:35:24.487Z,37.80
2018-10-17T08:37:59.739Z,40.57
2018-10-17T08:40:34.981Z,37.40
2018-10-17T08:43:10.316Z,38.10
2018-10-17T08:45:45.664Z,36.03
2018-10-17T08:48:21.116Z,38.77
2018-10-17T08:50:56.377Z,35.73
2018-10-17T08:53:31.572Z,38.40
2018-10-17T08:56:06.829Z,36.17
2018-10-17T08:58:41.999Z,34.30
2018-10-17T09:01:17.364Z,35.93
2018-10-17T09:03:52.731Z,37.47
2018-10-17T09:06:27.973Z,36.53
2018-10-17T09:09:03.331Z,35.33
2018-10-17T09:11:38.991Z,32.47
2018-10-17T09:14:14.375Z,34.50
2018-10-17T09:16:49.762Z,34.83
2018-10-17T09:19:25.161Z,34.30
2018-10-17T09:22:00.952Z,33.63
2018-10-17T09:24:36.173Z,33.57
2018-10-17T09:27:11.612Z,30.93
2018-10-17T09:29:47.075Z,33.50
2018-10-17T09:32:22.381Z,29.80
2018-10-17T09:34:57.628Z,29.70
2018-10-17T09:37:33.103Z,27.77
2018-10-17T09:40:09.825Z,29.07
2018-10-17T09:42:45.318Z,29.33
2018-10-17T09:45:20.534Z,26.70
2018-10-17T09:47:55.698Z,27.47
2018-10-17T09:50:30.938Z,25.70
2018-10-17T09:53:06.358Z,27.40
2018-10-17T09:55:41.725Z,25.60
2018-10-17T09:58:17.036Z,25.00
2018-10-17T10:00:57.304Z,26.13
2018-10-17T10:03:32.506Z,24.40
2018-10-17T10:06:07.911Z,22.43
2018-10-17T10:08:43.205Z,22.77
2018-10-17T10:11:18.441Z,22.80
2018-10-17T10:13:53.840Z,23.63
2018-10-17T10:16:29.170Z,20.27
2018-10-17T10:19:04.511Z,19.73
2018-10-17T10:21:39.814Z,21.43
2018-10-17T10:24:15.156Z,22.03
2018-10-17T10:26:50.423Z,20.80
2018-10-17T10:29:25.904Z,19.77
2018-10-17T10:32:01.412Z,20.37
2018-10-17T10:34:36.719Z,21.20
2018-10-17T10:37:11.975Z,18.53
2018-10-17T10:39:47.274Z,17.93
2018-10-17T10:42:22.894Z,17.63
2018-10-17T10:44:58.029Z,17.17
2018-10-17T10:47:33.267Z,15.90
2018-10-17T10:50:09.678Z,17.83
2018-10-17T10:52:44.699Z,17.93
2018-10-17T10:55:19.872Z,19.20
2018-10-17T10:57:55.172Z,18.90
2018-10-17T11:00:30.286Z,18.93
2018-10-17T11:03:06.135Z,17.67
2018-10-17T11:05:41.616Z,18.60
2018-10-17T11:08:16.667Z,16.40
2018-10-17T11:10:51.848Z,17.10
2018-10-17T11:13:27.130Z,17.87
2018-10-17T11:16:02.555Z,15.90
2018-10-17T11:18:37.880Z,16.63
2018-10-17T11:21:13.013Z,13.47
2018-10-17T11:23:48.480Z,14.63
2018-10-17T11:26:23.732Z,14.70
2018-10-17T11:28:59.127Z,14.70
2018-10-17T11:31:34.651Z,12.87
2018-10-17T11:34:09.782Z,13.90
2018-10-17T11:36:44.991Z,12.50
2018-10-17T11:39:20.348Z,13.10
2018-10-17T11:41:55.676Z,12.63
2018-10-17T11:44:31.003Z,11.27
2018-10-17T11:47:06.533Z,11.70
2018-10-17T11:49:41.986Z,9.80
2018-10-17T11:52:17.462Z,11.83
2018-10-17T11:54:52.658Z,12.03
2018-10-17T11:57:28.183Z,10.17
2018-10-17T12:00:03.763Z,10.50
2018-10-17T12:02:39.124Z,11.00
2018-10-17T12:05:15.661Z,10.33
2018-10-17T12:07:50.609Z,11.57
2018-10-17T12:10:26.113Z,10.23
2018-10-17T12:13:01.774Z,12.10
2018-10-17T12:15:41.707Z,10.10
2018-10-17T12:18:17.092Z,9.60
2018-10-17T12:20:52.845Z,10.20
2018-10-17T12:23:28.231Z,10.77
2018-10-17T12:26:03.644Z,13.70
2018-10-17T12:28:39.103Z,11.13
2018-10-17T12:31:14.611Z,12.10
2018-10-17T12:33:50.015Z,10.47
2018-10-17T12:36:25.350Z,9.40
2018-10-17T12:39:00.918Z,9.50
2018-10-17T12:41:36.543Z,8.63
2018-10-17T12:44:12.030Z,11.30
2018-10-17T12:46:47.580Z,14.17
2018-10-17T12:49:23.117Z,14.67
2018-10-17T12:51:58.669Z,13.70
2018-10-17T12:54:34.205Z,112.73
2018-10-17T12:57:09.840Z,10.23
2018-10-17T12:59:45.614Z,11.00
2018-10-17T13:02:21.087Z,10.70
2018-10-17T13:04:56.590Z,10.70
2018-10-17T13:07:31.966Z,12.00
2018-10-17T13:10:08.635Z,10.10
2018-10-17T13:12:43.970Z,12.27
2018-10-17T13:15:21.325Z,13.17
2018-10-17T13:17:57.215Z,9.93
2018-10-17T13:20:32.792Z,11.67
2018-10-17T13:23:08.409Z,10.23
2018-10-17T13:25:43.997Z,9.80
2018-10-17T13:28:19.510Z,9.90
2018-10-17T13:30:54.861Z,9.90
2018-10-17T13:33:30.327Z,10.27
2018-10-17T13:36:05.753Z,9.77
2018-10-17T13:38:41.162Z,9.40
2018-10-17T13:41:16.542Z,8.70
2018-10-17T13:43:52.101Z,9.40
2018-10-17T13:46:27.890Z,9.37
2018-10-17T13:49:03.945Z,8.63
2018-10-17T13:51:39.946Z,10.30
2018-10-17T13:54:15.372Z,8.90
2018-10-17T13:56:51.579Z,10.00
2018-10-17T13:59:28.459Z,8.93
2018-10-17T14:02:03.672Z,9.87
2018-10-17T14:04:38.980Z,10.10
2018-10-17T14:07:14.445Z,10.10
2018-10-17T14:09:49.809Z,10.90
2018-10-17T14:12:26.590Z,10.03
2018-10-17T14:15:02.105Z,10.17
2018-10-17T14:17:37.502Z,10.33
2018-10-17T14:20:13.121Z,10.57
2018-10-17T14:22:48.913Z,11.83
2018-10-17T14:25:24.543Z,11.87
2018-10-17T14:27:59.961Z,13.40
2018-10-17T14:30:35.342Z,12.50
2018-10-17T14:33:10.934Z,11.20
2018-10-17T14:35:46.386Z,11.00
2018-10-17T14:38:22.113Z,10.23
2018-10-17T14:40:57.646Z,12.97
2018-10-17T14:43:32.930Z,12.53
2018-10-17T14:46:08.189Z,11.37
2018-10-17T14:48:43.712Z,10.43
2018-10-17T14:51:19.290Z,10.23
2018-10-17T14:53:54.628Z,10.97
2018-10-17T14:56:30.147Z,11.90
2018-10-17T14:59:05.805Z,11.40
2018-10-17T15:01:41.283Z,10.80
2018-10-17T15:04:17.030Z,10.00
2018-10-17T15:06:52.412Z,10.50
2018-10-17T15:09:28.050Z,10.07
2018-10-17T15:12:03.428Z,10.87
2018-10-17T15:14:38.794Z,10.63
2018-10-17T15:17:14.284Z,10.70
2018-10-17T15:19:49.656Z,11.30
2018-10-17T15:22:25.289Z,11.40
2018-10-17T15:25:01.315Z,9.90
2018-10-17T15:27:36.904Z,10.90
2018-10-17T15:30:12.481Z,10.50
2018-10-17T15:32:47.863Z,12.37
2018-10-17T15:35:23.867Z,13.60
2018-10-17T15:37:59.518Z,12.10
2018-10-17T15:40:34.921Z,12.67
2018-10-17T15:43:10.610Z,12.70
2018-10-17T15:45:45.910Z,13.37
2018-10-17T15:48:21.421Z,12.87
2018-10-17T15:50:57.032Z,13.60
2018-10-17T15:53:32.428Z,14.47
2018-10-17T15:56:08.097Z,15.07
2018-10-17T15:58:43.636Z,15.63
2018-10-17T16:01:19.181Z,17.20
2018-10-17T16:03:54.604Z,16.83
2018-10-17T16:06:30.176Z,15.80
2018-10-17T16:09:09.811Z,16.90
2018-10-17T16:11:45.355Z,16.00
2018-10-17T16:14:20.876Z,17.33
2018-10-17T16:16:56.604Z,16.60
2018-10-17T16:19:32.063Z,20.80
2018-10-17T16:22:07.671Z,21.30
2018-10-17T16:24:43.232Z,23.00
2018-10-17T16:27:18.784Z,23.80
2018-10-17T16:29:54.454Z,23.70
2018-10-17T16:32:29.936Z,26.20
2018-10-17T16:35:06.309Z,26.40
2018-10-17T16:37:41.961Z,26.73
2018-10-17T16:40:17.500Z,27.83
2018-10-17T16:42:53.136Z,27.77
2018-10-17T16:45:28.789Z,30.93
2018-10-17T16:48:04.348Z,31.43
2018-10-17T16:50:40.056Z,33.00
2018-10-17T16:53:15.521Z,31.00
2018-10-17T16:55:51.156Z,34.73
2018-10-17T16:58:26.651Z,32.90
2018-10-17T17:01:02.292Z,31.73
2018-10-17T17:03:37.624Z,32.37
2018-10-17T17:06:13.161Z,34.97
2018-10-17T17:08:48.611Z,35.50
2018-10-17T17:11:24.954Z,35.30
2018-10-17T17:14:06.860Z,38.07
2018-10-17T17:16:42.464Z,36.63
2018-10-17T17:19:18.058Z,36.67
2018-10-17T17:21:53.646Z,38.77
2018-10-17T17:24:29.221Z,38.30
2018-10-17T17:27:05.120Z,37.90
2018-10-17T17:29:40.871Z,37.30
2018-10-17T17:32:16.441Z,38.80
2018-10-17T17:34:51.962Z,37.30
2018-10-17T17:37:27.324Z,37.80
2018-10-17T17:40:02.778Z,39.90
2018-10-17T17:42:38.370Z,39.67
2018-10-17T17:45:13.761Z,39.30
2018-10-17T17:47:49.516Z,40.80
2018-10-17T17:50:25.093Z,38.53
2018-10-17T17:53:00.405Z,41.77
2018-10-17T17:55:35.704Z,42.67
2018-10-17T17:58:11.226Z,41.17
2018-10-17T18:00:46.873Z,44.63
2018-10-17T18:03:22.495Z,40.60
2018-10-17T18:05:58.244Z,44.33
2018-10-17T18:08:33.568Z,40.57
2018-10-17T18:11:19.971Z,46.27
2018-10-17T18:13:56.630Z,44.50
2018-10-17T18:16:32.025Z,44.83
2018-10-17T18:19:07.606Z,47.20
2018-10-17T18:21:43.021Z,46.50
2018-10-17T18:24:18.593Z,46.67
2018-10-17T18:26:54.151Z,44.65
2018-10-17T18:29:29.667Z,49.43
2018-10-17T18:32:05.629Z,48.45
2018-10-17T18:34:41.141Z,49.13
2018-10-17T18:37:16.576Z,50.63
2018-10-17T18:39:52.110Z,48.55
2018-10-17T18:42:27.534Z,46.30
2018-10-17T18:45:03.201Z,49.38
2018-10-17T18:47:38.786Z,52.53
2018-10-17T18:50:14.078Z,50.23
2018-10-17T18:52:49.664Z,51.70
2018-10-17T18:55:24.930Z,49.33
2018-10-17T18:58:00.366Z,53.68
2018-10-17T19:00:36.028Z,51.77
2018-10-17T19:03:11.667Z,49.88
2018-10-17T19:05:46.816Z,53.00
2018-10-17T19:08:22.221Z,50.38
2018-10-17T19:10:57.472Z,53.63
2018-10-17T19:13:32.891Z,51.80
2018-10-17T19:16:08.755Z,54.53
2018-10-17T19:18:44.244Z,52.83
2018-10-17T19:21:19.907Z,53.65
2018-10-17T19:23:55.364Z,52.25
2018-10-17T19:26:30.891Z,51.58
2018-10-17T19:29:06.362Z,52.78
2018-10-17T19:31:41.994Z,52.60
2018-10-17T19:34:17.284Z,55.95
2018-10-17T19:36:52.514Z,55.80
2018-10-17T19:39:27.874Z,51.40
2018-10-17T19:42:03.406Z,57.95
2018-10-17T19:44:38.791Z,55.00
2018-10-17T19:47:14.308Z,57.10
2018-10-17T19:49:49.864Z,56.60
2018-10-17T19:52:25.283Z,58.75
2018-10-17T19:55:00.818Z,55.92
2018-10-17T19:57:35.993Z,58.05
2018-10-17T20:00:13.415Z,58.10
2018-10-17T20:02:48.771Z,57.30
2018-10-17T20:05:24.267Z,57.03
2018-10-17T20:07:59.883Z,58.25
2018-10-17T20:10:35.643Z,57.08
2018-10-17T20:13:11.187Z,54.85
2018-10-17T20:15:46.718Z,56.63
2018-10-17T20:18:22.110Z,56.88
2018-10-17T20:20:57.541Z,59.95
2018-10-17T20:23:33.301Z,60.08
2018-10-17T20:26:08.814Z,56.88
2018-10-17T20:28:44.180Z,60.30
2018-10-17T20:31:19.736Z,58.58
2018-10-17T20:33:55.184Z,57.75
2018-10-17T20:36:30.745Z,59.48
2018-10-17T20:39:11.011Z,60.80
2018-10-17T20:41:48.772Z,64.00
2018-10-17T20:44:24.365Z,61.13
2018-10-17T20:46:59.762Z,57.73
2018-10-17T20:49:35.223Z,62.13
2018-10-17T20:52:10.844Z,57.30
2018-10-17T20:54:48.061Z,66.45
2018-10-17T20:57:23.577Z,60.88
2018-10-17T20:59:59.173Z,62.88
2018-10-17T21:02:34.841Z,61.05
2018-10-17T21:05:10.564Z,60.55
2018-10-17T21:07:46.225Z,60.12
2018-10-17T21:10:21.775Z,63.92
2018-10-17T21:12:57.414Z,64.10
2018-10-17T21:15:33.216Z,59.25
2018-10-17T21:18:08.770Z,67.62
2018-10-17T21:20:44.041Z,63.80
2018-10-17T21:23:19.625Z,61.95
2018-10-17T21:25:54.990Z,64.22
2018-10-17T21:28:30.302Z,60.33
2018-10-17T21:31:05.960Z,60.35
2018-10-17T21:33:41.505Z,57.85
2018-10-17T21:36:17.021Z,56.58
2018-10-17T21:38:52.462Z,56.77
2018-10-17T21:41:28.175Z,62.10
2018-10-17T21:44:03.947Z,59.20
2018-10-17T21:46:39.721Z,57.80
2018-10-17T21:49:15.081Z,61.20
2018-10-17T21:51:50.625Z,59.45
2018-10-17T21:54:26.142Z,55.78
2018-10-17T21:57:01.596Z,61.15
2018-10-17T21:59:36.974Z,57.70
2018-10-17T22:02:12.469Z,57.17
2018-10-17T22:04:47.985Z,55.10
2018-10-17T22:07:23.381Z,56.15
2018-10-17T22:09:58.919Z,55.23
2018-10-17T22:12:34.365Z,53.65
2018-10-17T22:15:10.412Z,55.25
2018-10-17T22:17:46.135Z,54.42
2018-10-17T22:20:21.665Z,55.83
2018-10-17T22:22:57.084Z,53.28
2018-10-17T22:25:32.744Z,58.15
2018-10-17T22:28:08.194Z,54.10
2018-10-17T22:30:43.732Z,51.08
2018-10-17T22:33:19.365Z,51.45
2018-10-17T22:35:57.901Z,55.10
2018-10-17T22:38:33.413Z,53.15
2018-10-17T22:41:08.873Z,53.33
2018-10-17T22:43:44.282Z,52.25
2018-10-17T22:46:19.872Z,51.70
2018-10-17T22:48:55.455Z,52.65
2018-10-17T22:51:30.921Z,56.00
2018-10-17T22:54:06.706Z,52.23
2018-10-17T22:56:42.034Z,50.28
2018-10-17T22:59:17.442Z,50.67
2018-10-17T23:01:52.966Z,51.20
2018-10-17T23:04:28.504Z,50.80
2018-10-17T23:07:04.069Z,48.08
2018-10-17T23:09:39.566Z,46.53
2018-10-17T23:12:15.147Z,48.70
2018-10-17T23:14:50.516Z,49.23
2018-10-17T23:17:26.242Z,47.60
2018-10-17T23:20:01.781Z,49.10
2018-10-17T23:22:37.323Z,47.80
2018-10-17T23:25:12.822Z,44.83
2018-10-17T23:27:48.723Z,43.70
2018-10-17T23:30:24.053Z,46.45
2018-10-17T23:35:58.555Z,47.23
2018-10-17T23:38:33.955Z,48.50
2018-10-17T23:41:09.525Z,45.00
2018-10-17T23:43:44.982Z,43.73
2018-10-17T23:46:20.342Z,43.02
2018-10-17T23:48:55.765Z,42.60
2018-10-17T23:51:31.205Z,47.17
2018-10-17T23:54:06.829Z,43.78
2018-10-17T23:56:42.392Z,45.58
2018-10-17T23:59:17.855Z,46.45
